Time;durP1;ratioP1;P1;durP2;ratioP2;P2;SDS_P1;SDS_P2;PMS_P1;PMS_P2;Temp;Humidity;BMP_temperature;BMP_pressure;BME280_temperature;BME280_humidity;BME280_pressure;Samples;Min_cycle;Max_cycle;Signal;HPM_P1;HPM_P2
2022/09/13 00:00:53;;;;;;;1.07;0.80;;;15.30;99.90;;;;;;5031776;28;20256;-51
2022/09/13 00:03:23;;;;;;;0.63;0.63;;;15.30;99.90;;;;;;5029210;28;20202;-50
2022/09/13 00:05:50;;;;;;;1.90;0.60;;;15.20;99.90;;;;;;5033094;28;20589;-50
2022/09/13 00:08:21;;;;;;;1.70;0.50;;;15.20;99.90;;;;;;5033820;28;20273;-50
2022/09/13 00:10:48;;;;;;;0.80;0.63;;;15.20;99.90;;;;;;5034710;28;20233;-50
2022/09/13 00:13:19;;;;;;;1.80;0.57;;;15.30;99.90;;;;;;5029321;28;20207;-50
2022/09/13 00:15:48;;;;;;;1.23;0.63;;;15.20;99.90;;;;;;5026167;28;20210;-49
2022/09/13 00:18:22;;;;;;;0.60;0.60;;;15.10;99.90;;;;;;5033625;28;20226;-50
2022/09/13 00:20:49;;;;;;;0.33;0.33;;;15.10;99.90;;;;;;5032922;28;20202;-49
2022/09/13 00:23:16;;;;;;;0.70;0.57;;;15.00;99.90;;;;;;5034182;28;20206;-51
2022/09/13 00:25:43;;;;;;;0.50;0.50;;;14.90;99.90;;;;;;5032647;28;20206;-49
2022/09/13 00:28:10;;;;;;;1.50;0.60;;;14.90;99.90;;;;;;5033619;28;20227;-50
2022/09/13 00:30:37;;;;;;;1.73;0.50;;;14.90;99.90;;;;;;5034334;28;20210;-50
2022/09/13 00:33:04;;;;;;;0.50;0.43;;;14.80;99.90;;;;;;5034027;28;20206;-49
2022/09/13 00:35:32;;;;;;;0.60;0.50;;;14.80;99.90;;;;;;5031966;28;20314;-50
2022/09/13 00:38:00;;;;;;;0.33;0.33;;;14.80;99.90;;;;;;5032940;28;20218;-49
2022/09/13 00:40:29;;;;;;;1.27;0.50;;;14.80;99.90;;;;;;5033507;28;20719;-50
2022/09/13 00:42:56;;;;;;;0.57;0.57;;;14.80;99.90;;;;;;5034209;28;20279;-50
2022/09/13 00:45:23;;;;;;;0.60;0.60;;;14.70;99.90;;;;;;5034090;28;20198;-50
2022/09/13 00:47:55;;;;;;;1.00;0.80;;;14.70;99.90;;;;;;5031608;28;20786;-50
2022/09/13 00:50:28;;;;;;;0.50;0.50;;;14.70;99.90;;;;;;5033879;28;20599;-50
2022/09/13 00:53:01;;;;;;;2.40;0.40;;;14.60;99.90;;;;;;5033864;28;20260;-50
2022/09/13 00:55:32;;;;;;;1.00;0.90;;;14.70;99.90;;;;;;5024773;28;20226;-51
2022/09/13 00:58:04;;;;;;;0.93;0.67;;;14.60;99.90;;;;;;5032919;28;20218;-50
2022/09/13 01:00:32;;;;;;;0.70;0.70;;;14.60;99.90;;;;;;5033796;28;20688;-51
2022/09/13 01:03:01;;;;;;;1.33;0.53;;;14.60;99.90;;;;;;5033813;28;20210;-49
2022/09/13 01:05:33;;;;;;;1.07;0.60;;;14.50;99.90;;;;;;5032472;28;20687;-49
2022/09/13 01:08:02;;;;;;;0.70;0.70;;;14.50;99.90;;;;;;5030642;28;20587;-51
2022/09/13 01:10:30;;;;;;;0.90;0.90;;;14.50;99.90;;;;;;5035297;28;20202;-50
2022/09/13 01:13:05;;;;;;;0.87;0.73;;;14.50;99.90;;;;;;5033600;28;20583;-50
2022/09/13 01:15:32;;;;;;;1.03;0.50;;;14.40;99.90;;;;;;5033114;28;20249;-50
2022/09/13 01:17:59;;;;;;;0.93;0.53;;;14.40;99.90;;;;;;5025325;28;20738;-49
2022/09/13 01:20:40;;;;;;;1.93;0.77;;;14.50;99.90;;;;;;5030166;28;20711;-49
2022/09/13 01:23:40;;;;;;;0.53;0.43;;;14.50;99.90;;;;;;5027796;28;20716;-51
2022/09/13 01:26:42;;;;;;;0.50;0.50;;;14.40;99.90;;;;;;5021251;28;20205;-51
2022/09/13 01:29:49;;;;;;;1.23;0.53;;;14.50;99.90;;;;;;5029358;28;20206;-49
2022/09/13 01:32:27;;;;;;;1.50;0.40;;;14.50;99.90;;;;;;5032148;28;20202;-51
2022/09/13 01:35:04;;;;;;;0.73;0.43;;;14.50;99.90;;;;;;5030849;28;20296;-51
2022/09/13 01:37:46;;;;;;;0.30;0.30;;;14.40;99.90;;;;;;5026262;28;20275;-50
2022/09/13 01:40:27;;;;;;;0.50;0.50;;;14.50;99.90;;;;;;5032001;28;20198;-50
2022/09/13 01:43:11;;;;;;;0.60;0.50;;;14.50;99.90;;;;;;5032992;28;20214;-51
2022/09/13 01:45:48;;;;;;;1.27;0.60;;;14.60;99.90;;;;;;5033195;28;20199;-50
2022/09/13 01:48:24;;;;;;;1.90;0.70;;;14.50;99.90;;;;;;5025406;28;20731;-51
2022/09/13 01:50:59;;;;;;;1.17;0.50;;;14.50;99.90;;;;;;5032313;28;20202;-50
2022/09/13 01:53:33;;;;;;;1.03;0.63;;;14.50;99.90;;;;;;5024720;28;20203;-49
2022/09/13 01:56:06;;;;;;;1.27;0.83;;;14.40;99.90;;;;;;5033826;28;20315;-49
2022/09/13 01:58:39;;;;;;;1.13;0.60;;;14.40;99.90;;;;;;5024433;28;20230;-49
2022/09/13 02:01:14;;;;;;;0.50;0.50;;;14.30;99.90;;;;;;5031031;28;20206;-50
2022/09/13 02:03:49;;;;;;;0.60;0.60;;;14.30;99.90;;;;;;5032326;28;20260;-50
2022/09/13 02:06:19;;;;;;;4.07;2.10;;;14.30;99.90;;;;;;5032046;28;20202;-50
2022/09/13 02:08:51;;;;;;;0.50;0.50;;;14.20;99.90;;;;;;5020867;28;20285;-49
2022/09/13 02:11:21;;;;;;;0.83;0.50;;;14.20;99.90;;;;;;5032605;28;20233;-50
2022/09/13 02:13:54;;;;;;;1.73;0.50;;;14.10;99.90;;;;;;5030381;28;20210;-51
2022/09/13 02:16:28;;;;;;;0.50;0.50;;;14.10;99.90;;;;;;5023886;28;20202;-51
2022/09/13 02:19:01;;;;;;;0.57;0.50;;;14.10;99.90;;;;;;5030575;28;20209;-50
2022/09/13 02:21:31;;;;;;;1.83;0.97;;;14.10;99.90;;;;;;5032411;28;20207;-49
2022/09/13 02:24:03;;;;;;;0.87;0.60;;;14.00;99.90;;;;;;5032001;28;20198;-50
2022/09/13 02:26:31;;;;;;;0.93;0.37;;;14.00;99.90;;;;;;5034423;28;20198;-51
2022/09/13 02:29:01;;;;;;;1.13;0.50;;;13.90;99.90;;;;;;5021491;28;20195;-50
2022/09/13 02:31:33;;;;;;;1.07;0.40;;;13.90;99.90;;;;;;5032236;28;20198;-50
2022/09/13 02:34:06;;;;;;;1.23;0.30;;;13.90;99.90;;;;;;5031943;28;20657;-50
2022/09/13 02:36:39;;;;;;;0.50;0.50;;;13.90;99.90;;;;;;5031841;28;20603;-50
2022/09/13 02:39:12;;;;;;;0.50;0.50;;;13.90;99.90;;;;;;5031401;28;20207;-49
2022/09/13 02:41:46;;;;;;;0.47;0.47;;;13.90;99.90;;;;;;5032031;28;20206;-50
2022/09/13 02:44:19;;;;;;;0.30;0.30;;;13.90;99.90;;;;;;5026036;28;20572;-50
2022/09/13 02:47:04;;;;;;;2.00;0.20;;;13.90;99.90;;;;;;5031715;28;20300;-50
2022/09/13 02:49:42;;;;;;;0.40;0.40;;;13.90;99.90;;;;;;5031171;28;20198;-49
2022/09/13 02:52:17;;;;;;;0.30;0.30;;;13.90;99.90;;;;;;5019784;28;20206;-50
2022/09/13 02:54:52;;;;;;;0.37;0.37;;;13.90;99.90;;;;;;5029411;28;20218;-50
2022/09/13 02:57:24;;;;;;;0.30;0.30;;;13.90;99.90;;;;;;5025752;28;20293;-49
2022/09/13 02:59:51;;;;;;;0.30;0.30;;;13.90;99.90;;;;;;5028707;28;20561;-52
2022/09/13 03:02:22;;;;;;;0.40;0.40;;;13.90;99.90;;;;;;5031726;28;20213;-50
2022/09/13 03:04:50;;;;;;;0.40;0.40;;;13.90;99.90;;;;;;5029240;28;20202;-50
2022/09/13 03:07:18;;;;;;;0.40;0.40;;;13.90;99.90;;;;;;5024625;28;20272;-50
2022/09/13 03:09:49;;;;;;;0.60;0.60;;;13.90;99.90;;;;;;5030965;28;20203;-49
2022/09/13 03:12:32;;;;;;;0.40;0.40;;;13.90;99.90;;;;;;5032032;28;20222;-50
2022/09/13 03:15:11;;;;;;;3.00;0.50;;;13.90;99.90;;;;;;5029761;28;20226;-50
2022/09/13 03:17:50;;;;;;;0.30;0.30;;;13.90;99.90;;;;;;5030818;28;20309;-49
2022/09/13 03:20:28;;;;;;;1.17;0.93;;;14.00;99.90;;;;;;5022851;28;20202;-49
2022/09/13 03:23:31;;;;;;;0.50;0.50;;;14.00;99.90;;;;;;5031424;28;20252;-49
2022/09/13 03:26:20;;;;;;;2.63;0.50;;;13.90;99.90;;;;;;5030122;28;20199;-50
2022/09/13 03:28:56;;;;;;;1.80;0.60;;;13.90;99.90;;;;;;5025772;28;20316;-49
2022/09/13 03:31:31;;;;;;;0.40;0.40;;;13.70;99.90;;;;;;5032257;28;20206;-50
2022/09/13 03:34:02;;;;;;;0.83;0.60;;;13.60;99.90;;;;;;5015654;28;20213;-50
2022/09/13 03:36:37;;;;;;;0.43;0.43;;;13.60;99.90;;;;;;5022443;28;20222;-49
2022/09/13 03:39:13;;;;;;;1.83;0.57;;;13.60;99.90;;;;;;5034706;28;20202;-49
2022/09/13 03:41:47;;;;;;;0.50;0.50;;;13.50;99.90;;;;;;5035160;28;20221;-49
2022/09/13 03:44:18;;;;;;;0.57;0.47;;;13.50;99.90;;;;;;5035056;28;20230;-50
2022/09/13 03:46:48;;;;;;;2.63;0.70;;;13.60;99.90;;;;;;5036696;28;20210;-51
2022/09/13 03:49:17;;;;;;;1.17;0.40;;;13.60;99.90;;;;;;5033999;28;20209;-51
2022/09/13 03:51:48;;;;;;;1.13;0.40;;;13.70;99.90;;;;;;5034237;28;20208;-50
2022/09/13 03:54:19;;;;;;;1.00;0.90;;;13.70;99.90;;;;;;5033489;28;20210;-50
2022/09/13 03:57:08;;;;;;;2.60;0.40;;;13.60;99.90;;;;;;5033016;28;20226;-49
2022/09/13 03:59:37;;;;;;;0.43;0.40;;;13.70;99.90;;;;;;5029770;28;20199;-50
2022/09/13 04:02:07;;;;;;;0.50;0.43;;;13.70;99.90;;;;;;5032135;28;20656;-49
2022/09/13 04:04:34;;;;;;;0.90;0.40;;;13.60;99.90;;;;;;5034426;28;20207;-50
2022/09/13 04:07:03;;;;;;;0.60;0.60;;;13.60;99.90;;;;;;5027209;28;20218;-50
2022/09/13 04:09:30;;;;;;;2.50;0.60;;;13.50;99.90;;;;;;5033409;28;20226;-50
2022/09/13 04:11:57;;;;;;;0.73;0.63;;;13.40;99.90;;;;;;5023819;28;20209;-50
2022/09/13 04:14:25;;;;;;;1.10;1.10;;;13.30;99.90;;;;;;5025057;28;20207;-50
2022/09/13 04:16:54;;;;;;;0.67;0.67;;;13.30;99.90;;;;;;5028973;28;20223;-49
2022/09/13 04:19:21;;;;;;;0.90;0.70;;;13.30;99.90;;;;;;5029289;28;20199;-50
2022/09/13 04:21:49;;;;;;;0.63;0.60;;;13.30;99.90;;;;;;5029887;28;20202;-49
2022/09/13 04:24:18;;;;;;;0.97;0.90;;;13.30;99.90;;;;;;5032653;28;20737;-50
2022/09/13 04:26:48;;;;;;;1.00;0.53;;;13.40;99.90;;;;;;5030863;28;20727;-50
2022/09/13 04:29:15;;;;;;;2.27;0.73;;;13.40;99.90;;;;;;5031969;28;20209;-49
2022/09/13 04:31:42;;;;;;;2.67;0.50;;;13.40;99.90;;;;;;5033353;28;20206;-50
2022/09/13 04:34:09;;;;;;;1.20;0.70;;;13.40;99.90;;;;;;5032629;28;20206;-49
2022/09/13 04:36:36;;;;;;;2.33;0.70;;;13.40;99.90;;;;;;5027674;28;20230;-50
2022/09/13 04:39:04;;;;;;;1.83;0.67;;;13.30;99.90;;;;;;5032452;28;20305;-49
2022/09/13 04:41:33;;;;;;;1.40;0.77;;;13.20;99.90;;;;;;5038259;28;20202;-50
2022/09/13 04:44:00;;;;;;;0.50;0.50;;;13.20;99.90;;;;;;5034106;28;20264;-49
2022/09/13 04:46:28;;;;;;;2.50;0.60;;;13.10;99.90;;;;;;5033870;28;20202;-50
2022/09/13 04:48:55;;;;;;;0.50;0.50;;;13.10;99.90;;;;;;5032999;28;20252;-50
2022/09/13 04:51:22;;;;;;;4.13;0.53;;;13.10;99.90;;;;;;5030636;28;20211;-49
2022/09/13 04:53:53;;;;;;;0.80;0.73;;;13.10;99.90;;;;;;5031854;28;20205;-50
2022/09/13 04:56:21;;;;;;;1.20;1.10;;;13.10;99.90;;;;;;5028215;28;20237;-50
2022/09/13 04:58:50;;;;;;;0.83;0.80;;;13.10;99.90;;;;;;5027903;28;20271;-49
2022/09/13 05:01:18;;;;;;;1.67;1.17;;;13.10;99.90;;;;;;5033381;28;20283;-50
2022/09/13 05:03:45;;;;;;;1.70;1.30;;;13.10;99.90;;;;;;5030158;28;20202;-50
2022/09/13 05:06:14;;;;;;;1.70;1.60;;;13.10;99.90;;;;;;5025193;28;20683;-50
2022/09/13 05:08:41;;;;;;;2.60;1.70;;;13.10;99.90;;;;;;5026120;28;20222;-49
2022/09/13 05:11:08;;;;;;;3.27;2.33;;;13.20;99.90;;;;;;5032094;28;20206;-49
2022/09/13 05:13:35;;;;;;;4.13;1.90;;;13.20;99.90;;;;;;5022730;28;20408;-50
2022/09/13 05:16:06;;;;;;;1.60;1.50;;;13.30;99.90;;;;;;5018264;28;20697;-49
2022/09/13 05:18:36;;;;;;;5.03;1.47;;;13.40;99.90;;;;;;5027930;28;20707;-50
2022/09/13 05:21:05;;;;;;;0.63;0.63;;;13.50;99.90;;;;;;5033903;28;20202;-49
2022/09/13 05:23:32;;;;;;;1.53;0.87;;;13.50;99.90;;;;;;5030226;28;20199;-50
2022/09/13 05:26:01;;;;;;;0.97;0.90;;;13.60;99.90;;;;;;5030223;28;20195;-50
2022/09/13 05:28:31;;;;;;;1.37;0.60;;;13.70;99.90;;;;;;5025029;28;20231;-49
2022/09/13 05:30:59;;;;;;;5.93;1.30;;;13.70;99.90;;;;;;5030151;28;20241;-50
2022/09/13 05:33:30;;;;;;;0.60;0.60;;;13.80;99.90;;;;;;5031474;28;20209;-50
2022/09/13 05:35:58;;;;;;;2.07;0.53;;;13.80;99.90;;;;;;5033764;28;20217;-50
2022/09/13 05:38:26;;;;;;;0.40;0.40;;;13.90;99.90;;;;;;5028584;28;20256;-49
2022/09/13 05:40:55;;;;;;;1.37;0.63;;;14.00;99.90;;;;;;5033963;28;20203;-49
2022/09/13 05:43:26;;;;;;;2.83;1.03;;;14.10;99.90;;;;;;5032317;28;20856;-49
2022/09/13 05:46:01;;;;;;;0.50;0.50;;;14.20;99.90;;;;;;5031752;28;20195;-50
2022/09/13 05:48:29;;;;;;;0.63;0.63;;;14.30;99.90;;;;;;5028965;28;20240;-49
2022/09/13 05:50:56;;;;;;;1.80;0.40;;;14.40;99.90;;;;;;5026505;28;20202;-50
2022/09/13 05:53:24;;;;;;;0.60;0.60;;;14.50;99.90;;;;;;5026850;28;20225;-49
2022/09/13 05:55:51;;;;;;;2.63;0.50;;;14.90;99.90;;;;;;5028309;28;20310;-49
2022/09/13 05:58:22;;;;;;;0.47;0.47;;;15.30;99.90;;;;;;5032241;28;20265;-49
2022/09/13 06:00:53;;;;;;;2.47;0.93;;;15.80;99.90;;;;;;5028655;28;20272;-50
2022/09/13 06:03:21;;;;;;;3.17;0.60;;;16.50;99.90;;;;;;5030920;28;20288;-51
2022/09/13 06:05:50;;;;;;;3.30;0.50;;;17.10;99.90;;;;;;5031435;28;20202;-50
2022/09/13 06:08:21;;;;;;;1.67;0.60;;;17.80;99.90;;;;;;5031815;28;20302;-49
2022/09/13 06:10:54;;;;;;;0.87;0.40;;;18.40;99.90;;;;;;5022437;28;20212;-50
2022/09/13 06:13:24;;;;;;;0.50;0.50;;;19.00;99.90;;;;;;5022897;28;20289;-50
2022/09/13 06:15:51;;;;;;;0.40;0.40;;;19.30;99.90;;;;;;5026842;28;20234;-49
2022/09/13 06:18:21;;;;;;;1.40;0.30;;;19.70;99.90;;;;;;5029178;28;20226;-49
2022/09/13 06:20:50;;;;;;;1.90;0.47;;;19.90;99.90;;;;;;5022845;28;20681;-50
2022/09/13 06:23:17;;;;;;;0.20;0.20;;;20.30;99.90;;;;;;5029560;28;20199;-49
2022/09/13 06:25:44;;;;;;;1.20;0.30;;;20.50;99.90;;;;;;5031706;28;20195;-49
2022/09/13 06:28:11;;;;;;;0.50;0.40;;;20.90;99.90;;;;;;5029684;28;20222;-50
2022/09/13 06:30:38;;;;;;;2.40;0.40;;;21.40;99.90;;;;;;5029149;28;20241;-49
2022/09/13 06:33:05;;;;;;;2.10;0.50;;;22.20;99.90;;;;;;5029254;28;20656;-50
2022/09/13 06:35:32;;;;;;;1.57;0.43;;;23.00;99.90;;;;;;5026377;28;20202;-50
2022/09/13 06:38:01;;;;;;;0.50;0.50;;;23.60;99.90;;;;;;5023701;28;20241;-50
2022/09/13 06:40:28;;;;;;;1.63;0.40;;;24.10;99.90;;;;;;5022534;28;20198;-49
2022/09/13 06:42:55;;;;;;;2.00;0.30;;;24.40;99.90;;;;;;5020036;28;20218;-50
2022/09/13 06:45:22;;;;;;;2.23;0.30;;;24.80;99.90;;;;;;5030055;28;20848;-51
2022/09/13 06:47:49;;;;;;;1.40;0.40;;;24.50;99.90;;;;;;5031585;28;20222;-50
2022/09/13 06:50:17;;;;;;;5.83;0.30;;;24.40;99.90;;;;;;5031809;28;20268;-51
2022/09/13 06:52:44;;;;;;;0.80;0.40;;;23.70;99.90;;;;;;5027649;28;20285;-51
2022/09/13 06:55:12;;;;;;;1.30;0.20;;;23.10;99.90;;;;;;5030850;28;20190;-50
2022/09/13 06:57:39;;;;;;;0.43;0.43;;;22.80;99.90;;;;;;5025401;28;20222;-50
2022/09/13 07:00:07;;;;;;;2.97;0.30;;;22.00;99.90;;;;;;5022071;28;20287;-50
2022/09/13 07:02:34;;;;;;;2.20;0.80;;;21.30;99.90;;;;;;5019240;28;20199;-50
2022/09/13 07:05:01;;;;;;;2.83;0.40;;;21.80;99.90;;;;;;5020857;28;20260;-50
2022/09/13 07:07:28;;;;;;;2.57;0.40;;;22.30;99.90;;;;;;5020720;28;21503;-50
2022/09/13 07:09:55;;;;;;;1.50;0.20;;;22.50;99.90;;;;;;5020528;28;22127;-50
2022/09/13 07:12:23;;;;;;;0.20;0.20;;;23.10;99.90;;;;;;5022979;28;20207;-50
2022/09/13 07:14:51;;;;;;;0.60;0.30;;;24.00;99.90;;;;;;5018980;28;20736;-50
2022/09/13 07:17:17;;;;;;;3.70;0.30;;;24.30;99.90;;;;;;5021921;28;20746;-50
2022/09/13 07:19:44;;;;;;;0.27;0.23;;;25.00;99.90;;;;;;5028277;28;20726;-50
2022/09/13 07:22:12;;;;;;;2.07;0.30;;;25.30;99.90;;;;;;5025254;28;20260;-50
2022/09/13 07:24:39;;;;;;;0.97;0.67;;;25.50;99.90;;;;;;5020598;28;20281;-50
2022/09/13 07:27:06;;;;;;;1.27;0.20;;;25.80;99.90;;;;;;5019574;28;20218;-50
2022/09/13 07:29:34;;;;;;;1.70;0.20;;;25.90;99.90;;;;;;5020821;28;20265;-50
2022/09/13 07:32:01;;;;;;;0.30;0.30;;;25.90;99.90;;;;;;5021022;28;20229;-51
2022/09/13 07:34:28;;;;;;;0.20;0.20;;;25.90;99.90;;;;;;5020723;28;20672;-51
2022/09/13 07:36:55;;;;;;;1.33;0.30;;;26.00;99.90;;;;;;5027433;28;20222;-50
2022/09/13 07:39:23;;;;;;;2.50;0.20;;;26.30;99.90;;;;;;5028943;28;20203;-50
2022/09/13 07:41:50;;;;;;;1.13;0.20;;;26.50;99.90;;;;;;5029670;28;20594;-50
2022/09/13 07:44:17;;;;;;;0.20;0.20;;;27.00;99.90;;;;;;5024403;28;20623;-50
2022/09/13 07:46:45;;;;;;;0.80;0.10;;;27.00;99.90;;;;;;5031257;28;20347;-50
2022/09/13 07:49:14;;;;;;;1.23;0.20;;;27.40;99.90;;;;;;5031146;28;20203;-50
2022/09/13 07:51:42;;;;;;;0.43;0.20;;;27.00;99.90;;;;;;5031138;28;20672;-50
2022/09/13 07:54:13;;;;;;;0.47;0.25;;;27.20;99.90;;;;;;5029633;28;20630;-50
2022/09/13 07:56:41;;;;;;;0.37;0.30;;;27.10;99.90;;;;;;5023881;28;20638;-50
2022/09/13 07:59:12;;;;;;;1.00;0.30;;;27.10;99.90;;;;;;5026612;28;20660;-50
2022/09/13 08:01:40;;;;;;;2.10;0.30;;;26.90;99.90;;;;;;5028936;28;20624;-50
2022/09/13 08:04:11;;;;;;;2.58;0.45;;;27.10;99.90;;;;;;5029917;28;20202;-51
2022/09/13 08:06:39;;;;;;;0.95;0.60;;;27.40;99.90;;;;;;5024416;28;20209;-50
2022/09/13 08:09:08;;;;;;;0.95;0.35;;;27.50;99.90;;;;;;5020926;28;20624;-50
2022/09/13 08:11:37;;;;;;;2.43;0.77;;;27.80;99.90;;;;;;5023022;28;20630;-51
2022/09/13 08:14:06;;;;;;;3.03;0.82;;;28.10;99.90;;;;;;5021163;28;20203;-50
2022/09/13 08:16:33;;;;;;;0.22;0.22;;;27.70;99.90;;;;;;5030674;28;20215;-51
2022/09/13 08:19:02;;;;;;;0.65;0.30;;;27.90;99.90;;;;;;5022606;28;20722;-50
2022/09/13 08:21:34;;;;;;;2.00;0.30;;;28.00;99.80;;;;;;5023808;28;20260;-50
2022/09/13 08:24:02;;;;;;;0.22;0.22;;;28.30;99.90;;;;;;5027576;28;20194;-50
2022/09/13 08:26:30;;;;;;;1.13;0.30;;;28.00;99.90;;;;;;5027071;28;20202;-50
2022/09/13 08:28:58;;;;;;;1.17;0.10;;;27.90;99.90;;;;;;5031940;28;20206;-50
2022/09/13 08:31:26;;;;;;;1.23;0.20;;;28.20;99.90;;;;;;5030307;28;20684;-50
2022/09/13 08:33:53;;;;;;;0.35;0.20;;;28.20;99.90;;;;;;5033089;28;20203;-50
2022/09/13 08:36:22;;;;;;;0.32;0.20;;;27.70;99.90;;;;;;5025513;28;20272;-50
2022/09/13 08:38:53;;;;;;;0.20;0.20;;;27.90;99.90;;;;;;5022120;28;20222;-50
2022/09/13 08:41:40;;;;;;;0.38;0.22;;;28.30;99.90;;;;;;5021859;28;20750;-50
2022/09/13 08:44:16;;;;;;;0.20;0.20;;;28.40;99.90;;;;;;5022763;28;20252;-50
2022/09/13 08:46:46;;;;;;;0.45;0.25;;;29.10;99.90;;;;;;5022885;28;20190;-51
2022/09/13 08:49:17;;;;;;;1.25;0.30;;;29.50;99.90;;;;;;5022876;28;20206;-50
2022/09/13 08:51:47;;;;;;;1.02;0.45;;;29.60;99.10;;;;;;5020953;28;20210;-51
2022/09/13 08:54:17;;;;;;;5.22;0.30;;;29.50;98.10;;;;;;5023033;28;20207;-50
2022/09/13 08:56:51;;;;;;;2.20;0.40;;;29.40;97.50;;;;;;5029237;28;20636;-50
2022/09/13 08:59:47;;;;;;;0.50;0.50;;;29.80;97.60;;;;;;5022531;28;20297;-51
2022/09/13 09:02:24;;;;;;;1.00;0.82;;;29.90;98.70;;;;;;5020382;28;20206;-51
2022/09/13 09:04:58;;;;;;;1.85;0.52;;;30.10;99.90;;;;;;5031657;28;20209;-51
2022/09/13 09:07:30;;;;;;;1.58;0.40;;;30.20;99.00;;;;;;5027652;28;20709;-51
2022/09/13 09:10:01;;;;;;;1.95;0.60;;;30.30;98.90;;;;;;5031109;28;20210;-50
2022/09/13 09:12:34;;;;;;;1.10;0.47;;;30.20;99.80;;;;;;5023180;28;20253;-50
2022/09/13 09:15:12;;;;;;;0.82;0.68;;;30.30;97.20;;;;;;5021401;28;20642;-50
2022/09/13 09:17:46;;;;;;;1.05;0.40;;;30.30;98.50;;;;;;5032519;28;20308;-50
2022/09/13 09:20:37;;;;;;;0.50;0.50;;;30.10;98.00;;;;;;5023376;28;20197;-49
2022/09/13 09:23:08;;;;;;;2.47;0.68;;;30.30;98.00;;;;;;5022094;28;20234;-50
2022/09/13 09:25:36;;;;;;;2.47;1.25;;;30.60;98.60;;;;;;5022685;28;20199;-50
2022/09/13 09:28:12;;;;;;;3.10;0.85;;;31.10;98.20;;;;;;5022365;28;20215;-50
2022/09/13 09:30:46;;;;;;;4.80;0.50;;;31.20;98.80;;;;;;5021745;28;20210;-51
2022/09/13 09:33:40;;;;;;;1.08;0.40;;;31.30;96.20;;;;;;5020370;28;20303;-51
2022/09/13 09:36:15;;;;;;;0.73;0.35;;;31.20;97.20;;;;;;5022358;28;20668;-50
2022/09/13 09:38:43;;;;;;;3.00;0.43;;;30.60;98.40;;;;;;5021243;28;20218;-52
2022/09/13 09:41:18;;;;;;;3.20;0.43;;;30.40;96.00;;;;;;5020681;28;20244;-50
2022/09/13 09:43:52;;;;;;;0.50;0.50;;;30.20;96.50;;;;;;5022166;28;20213;-51
2022/09/13 09:46:23;;;;;;;2.20;0.47;;;30.50;97.70;;;;;;5020704;28;20565;-52
2022/09/13 09:48:54;;;;;;;2.90;0.40;;;30.80;97.50;;;;;;5022703;28;20222;-51
2022/09/13 09:51:24;;;;;;;1.75;0.30;;;31.30;96.20;;;;;;5021841;28;20246;-51
2022/09/13 09:54:00;;;;;;;0.75;0.75;;;31.30;94.80;;;;;;5022778;28;20233;-51
2022/09/13 09:56:31;;;;;;;0.30;0.30;;;31.40;95.40;;;;;;5019811;28;20199;-51
2022/09/13 09:58:59;;;;;;;0.20;0.20;;;31.60;93.80;;;;;;5026081;28;20730;-51
2022/09/13 10:01:27;;;;;;;0.60;0.30;;;32.00;92.80;;;;;;5030569;28;20545;-52
2022/09/13 10:04:03;;;;;;;1.25;0.57;;;32.10;92.90;;;;;;5021397;28;20656;-51
2022/09/13 10:06:31;;;;;;;0.30;0.30;;;31.80;93.50;;;;;;5022162;28;20204;-51
2022/09/13 10:09:01;;;;;;;2.72;1.40;;;32.40;93.70;;;;;;5021417;28;20614;-51
2022/09/13 10:11:45;;;;;;;2.17;1.15;;;32.30;98.40;;;;;;5020549;28;20389;-51
2022/09/13 10:14:30;;;;;;;1.42;1.33;;;32.30;98.40;;;;;;5020051;28;20727;-51
2022/09/13 10:17:05;;;;;;;2.15;1.58;;;31.60;98.80;;;;;;5021804;28;20280;-51
2022/09/13 10:19:33;;;;;;;1.48;1.40;;;30.90;98.90;;;;;;5029139;28;20333;-51
2022/09/13 10:22:01;;;;;;;6.55;1.17;;;30.50;99.90;;;;;;5022967;28;20260;-50
2022/09/13 10:24:29;;;;;;;7.13;1.77;;;30.70;99.90;;;;;;5027696;28;20207;-51
2022/09/13 10:26:58;;;;;;;1.10;1.10;;;30.80;99.90;;;;;;5020855;28;20226;-51
2022/09/13 10:29:27;;;;;;;3.67;1.50;;;31.10;99.10;;;;;;5020397;28;20218;-51
2022/09/13 10:31:56;;;;;;;1.83;0.90;;;31.40;99.40;;;;;;5022930;28;20202;-51
2022/09/13 10:34:27;;;;;;;2.45;0.82;;;31.30;99.70;;;;;;5026367;28;20199;-50
2022/09/13 10:36:57;;;;;;;0.70;0.70;;;31.00;99.30;;;;;;5027169;28;20226;-51
2022/09/13 10:39:26;;;;;;;1.00;0.90;;;31.40;99.40;;;;;;5030319;28;20229;-51
2022/09/13 10:41:56;;;;;;;4.03;1.38;;;31.10;98.50;;;;;;5030466;28;20260;-51
2022/09/13 10:44:31;;;;;;;1.38;1.27;;;30.50;99.50;;;;;;5025324;28;20198;-50
2022/09/13 10:47:01;;;;;;;1.02;0.98;;;29.70;99.90;;;;;;5029311;28;20296;-51
2022/09/13 10:49:45;;;;;;;4.53;1.00;;;29.50;99.90;;;;;;5029963;28;20198;-51
2022/09/13 10:52:33;;;;;;;0.98;0.98;;;28.70;99.90;;;;;;5021579;28;20215;-50
2022/09/13 10:55:28;;;;;;;1.38;0.75;;;28.80;99.90;;;;;;5026211;28;20207;-50
2022/09/13 10:58:13;;;;;;;1.13;0.85;;;28.40;99.90;;;;;;5030032;28;20226;-50
2022/09/13 11:00:56;;;;;;;0.90;0.90;;;28.00;99.90;;;;;;5027200;28;20481;-51
2022/09/13 11:03:38;;;;;;;1.27;0.85;;;28.10;99.90;;;;;;5024529;28;20260;-51
2022/09/13 11:06:16;;;;;;;1.95;0.90;;;27.90;99.90;;;;;;5024530;28;20264;-51
2022/09/13 11:08:54;;;;;;;0.68;0.50;;;27.90;99.90;;;;;;5029799;28;20272;-51
2022/09/13 11:11:26;;;;;;;0.80;0.60;;;27.80;99.90;;;;;;5030144;28;20272;-51
2022/09/13 11:14:08;;;;;;;0.80;0.80;;;27.70;99.90;;;;;;5025790;28;20249;-50
2022/09/13 11:16:50;;;;;;;2.25;0.80;;;27.20;99.90;;;;;;5026501;28;20263;-50
2022/09/13 11:19:37;;;;;;;1.10;0.57;;;27.40;99.90;;;;;;5030567;28;20198;-51
2022/09/13 11:22:18;;;;;;;1.52;0.73;;;27.30;99.90;;;;;;5020728;28;20535;-51
2022/09/13 11:25:13;;;;;;;1.65;1.00;;;27.10;99.90;;;;;;5020661;28;20667;-50
2022/09/13 11:27:49;;;;;;;0.98;0.98;;;27.00;99.90;;;;;;5020819;28;20214;-50
2022/09/13 11:30:18;;;;;;;1.75;1.08;;;26.80;99.90;;;;;;5027489;28;20214;-50
2022/09/13 11:33:24;;;;;;;1.23;0.90;;;26.70;99.90;;;;;;5023715;28;20195;-51
2022/09/13 11:36:22;;;;;;;0.85;0.80;;;26.70;99.90;;;;;;5015872;28;20198;-51
2022/09/13 11:39:02;;;;;;;1.08;0.98;;;26.60;99.90;;;;;;5019362;28;20751;-50
2022/09/13 11:41:39;;;;;;;1.00;0.85;;;26.60;99.90;;;;;;5019515;28;20230;-50
2022/09/13 11:44:32;;;;;;;1.33;0.88;;;26.70;99.90;;;;;;5020940;28;20209;-50
2022/09/13 11:47:08;;;;;;;3.42;0.90;;;26.60;99.90;;;;;;5020081;28;20227;-50
2022/09/13 11:49:58;;;;;;;1.75;0.70;;;26.80;99.90;;;;;;5021252;28;20249;-49
2022/09/13 11:52:38;;;;;;;1.75;0.80;;;26.60;99.90;;;;;;5023995;28;20199;-51
2022/09/13 11:55:15;;;;;;;1.40;0.68;;;26.70;99.90;;;;;;5023965;28;20628;-50
2022/09/13 11:57:47;;;;;;;1.15;1.05;;;26.90;99.90;;;;;;5026510;28;20248;-50
2022/09/13 12:00:21;;;;;;;2.30;0.98;;;27.00;99.90;;;;;;5022367;28;20286;-51
2022/09/13 12:02:58;;;;;;;3.08;1.13;;;26.70;99.90;;;;;;5025725;28;20265;-50
2022/09/13 12:05:27;;;;;;;2.72;1.00;;;26.70;99.90;;;;;;5024742;28;20842;-51
2022/09/13 12:08:01;;;;;;;4.32;0.90;;;26.40;99.90;;;;;;5027170;28;20229;-51
2022/09/13 12:10:34;;;;;;;1.00;0.90;;;26.40;99.90;;;;;;5029186;28;20732;-51
2022/09/13 12:13:03;;;;;;;0.75;0.73;;;26.40;99.90;;;;;;5029910;28;20289;-50
2022/09/13 12:15:36;;;;;;;1.83;1.15;;;26.30;99.90;;;;;;5034432;28;20234;-50
2022/09/13 12:18:10;;;;;;;1.95;0.80;;;26.30;99.90;;;;;;5023639;28;20321;-51
2022/09/13 12:20:40;;;;;;;0.88;0.80;;;26.40;99.90;;;;;;5041856;28;20735;-51
2022/09/13 12:23:15;;;;;;;2.03;1.13;;;26.40;99.90;;;;;;5037174;28;20198;-51
2022/09/13 12:25:47;;;;;;;1.85;1.02;;;26.40;99.90;;;;;;5022785;28;20687;-50
2022/09/13 12:28:24;;;;;;;2.75;1.27;;;26.30;99.90;;;;;;5034239;28;20228;-52
2022/09/13 12:30:56;;;;;;;2.20;1.40;;;26.30;99.90;;;;;;5034312;28;20276;-51
2022/09/13 12:33:26;;;;;;;1.50;1.40;;;26.30;99.90;;;;;;5033412;28;20261;-50
2022/09/13 12:36:20;;;;;;;0.70;0.70;;;26.20;99.90;;;;;;5031123;28;20198;-50
2022/09/13 12:39:20;;;;;;;2.35;1.35;;;26.10;99.90;;;;;;5034237;28;20226;-50
2022/09/13 12:42:06;;;;;;;2.88;1.17;;;26.10;99.90;;;;;;5013645;28;20297;-51
2022/09/13 12:45:00;;;;;;;2.73;0.80;;;25.80;99.90;;;;;;5025376;28;20660;-51
2022/09/13 12:48:02;;;;;;;2.17;1.17;;;25.80;99.90;;;;;;5029354;28;20309;-51
2022/09/13 12:51:05;;;;;;;2.80;0.75;;;25.80;99.90;;;;;;5034273;28;20190;-50
2022/09/13 12:53:58;;;;;;;1.25;1.25;;;25.80;99.90;;;;;;5033532;28;20205;-51
2022/09/13 12:56:40;;;;;;;2.33;0.70;;;25.70;99.90;;;;;;5028693;28;20203;-51
2022/09/13 12:59:34;;;;;;;1.80;0.80;;;25.80;99.90;;;;;;5014236;28;20272;-51
2022/09/13 13:02:03;;;;;;;1.88;0.77;;;25.80;99.90;;;;;;5008359;28;20207;-51
2022/09/13 13:04:33;;;;;;;3.07;0.90;;;25.70;99.90;;;;;;5020356;28;20272;-50
2022/09/13 13:07:03;;;;;;;3.85;1.20;;;25.80;99.90;;;;;;5033327;28;20310;-51
2022/09/13 13:09:37;;;;;;;2.30;0.93;;;25.70;99.90;;;;;;5033571;28;20203;-51
2022/09/13 13:12:05;;;;;;;0.90;0.90;;;25.60;99.90;;;;;;5038655;28;20209;-51
2022/09/13 13:14:52;;;;;;;0.80;0.80;;;25.40;99.90;;;;;;5042669;28;20624;-51
2022/09/13 13:17:39;;;;;;;2.27;0.80;;;25.30;99.90;;;;;;5020855;28;20319;-51